Time;durP1;ratioP1;P1;durP2;ratioP2;P2;SDS_P1;SDS_P2;PMS_P1;PMS_P2;Temp;Humidity;BMP_temperature;BMP_pressure;BME280_temperature;BME280_humidity;BME280_pressure;Samples;Min_cycle;Max_cycle;Signal;HPM_P1;HPM_P2
2020/12/14 00:00:25;;;;;;;4.28;3.88;;;16.60;77.30;;;;;;5127005;28;20020;-45
2020/12/14 00:02:51;;;;;;;3.08;2.83;;;16.60;77.30;;;;;;5108711;28;20026;-45
2020/12/14 00:05:17;;;;;;;4.47;4.07;;;16.60;77.40;;;;;;5126511;28;20054;-45
2020/12/14 00:07:44;;;;;;;4.78;4.05;;;16.60;77.40;;;;;;5142628;27;20056;-45
2020/12/14 00:10:10;;;;;;;4.80;4.40;;;16.50;77.10;;;;;;5147466;27;20031;-45
2020/12/14 00:12:36;;;;;;;4.78;4.38;;;16.50;77.40;;;;;;5147224;27;20024;-45
2020/12/14 00:15:06;;;;;;;4.30;3.92;;;16.50;77.30;;;;;;5146906;27;20019;-45
2020/12/14 00:17:33;;;;;;;4.57;4.18;;;16.50;77.40;;;;;;5128514;27;20047;-46
2020/12/14 00:19:59;;;;;;;4.78;4.38;;;16.50;77.20;;;;;;5147117;27;20046;-45
2020/12/14 00:22:29;;;;;;;5.05;4.50;;;16.50;77.20;;;;;;5111877;27;20748;-45
2020/12/14 00:24:56;;;;;;;4.43;4.03;;;16.50;76.90;;;;;;5136229;27;20048;-45
2020/12/14 00:27:22;;;;;;;4.57;4.18;;;16.40;77.10;;;;;;5126377;28;20031;-45
2020/12/14 00:29:48;;;;;;;4.63;4.22;;;16.40;77.10;;;;;;5126348;28;20091;-44
2020/12/14 00:32:14;;;;;;;5.45;4.95;;;16.40;77.10;;;;;;5132827;27;20034;-45
2020/12/14 00:34:40;;;;;;;4.75;4.35;;;16.40;76.90;;;;;;5146930;27;20051;-45
2020/12/14 00:37:07;;;;;;;5.93;4.68;;;16.40;76.90;;;;;;5134038;27;20019;-45
2020/12/14 00:39:33;;;;;;;4.40;4.00;;;16.40;76.90;;;;;;5107853;28;20551;-45
2020/12/14 00:42:00;;;;;;;4.65;4.25;;;16.40;76.90;;;;;;5126137;28;20024;-45
2020/12/14 00:44:26;;;;;;;5.10;4.60;;;16.30;76.80;;;;;;5126068;28;20032;-45
2020/12/14 00:46:52;;;;;;;4.85;4.43;;;16.30;76.90;;;;;;5125744;28;20099;-46
2020/12/14 00:49:18;;;;;;;4.78;4.35;;;16.30;76.90;;;;;;5131569;27;20027;-45
2020/12/14 00:51:44;;;;;;;4.28;3.95;;;16.30;76.90;;;;;;5146732;27;20093;-46
2020/12/14 00:54:11;;;;;;;4.68;4.25;;;16.30;76.60;;;;;;5142323;27;20067;-45
2020/12/14 00:56:37;;;;;;;4.50;4.10;;;16.30;76.70;;;;;;5125550;28;20034;-45
2020/12/14 00:59:04;;;;;;;4.70;4.22;;;16.30;76.80;;;;;;5124574;28;20106;-45
2020/12/14 01:01:30;;;;;;;5.10;4.60;;;16.30;76.80;;;;;;5125922;28;20055;-45
2020/12/14 01:03:56;;;;;;;5.10;4.40;;;16.30;77.50;;;;;;5146390;27;20110;-45
2020/12/14 01:06:22;;;;;;;4.47;4.07;;;16.20;76.70;;;;;;5140406;27;20039;-45
2020/12/14 01:08:49;;;;;;;4.78;4.38;;;16.20;76.60;;;;;;5125546;28;20019;-45
2020/12/14 01:11:15;;;;;;;5.15;4.65;;;16.20;76.60;;;;;;5107214;28;20032;-45
2020/12/14 01:13:41;;;;;;;5.18;4.75;;;16.20;76.80;;;;;;5125828;28;20409;-45
2020/12/14 01:16:08;;;;;;;4.80;4.40;;;16.20;76.70;;;;;;5125086;28;20035;-45
2020/12/14 01:18:37;;;;;;;5.10;4.60;;;16.20;76.60;;;;;;5128318;27;20039;-45
2020/12/14 01:21:06;;;;;;;5.93;4.25;;;16.20;76.70;;;;;;5145951;27;20031;-45
2020/12/14 01:23:32;;;;;;;4.95;4.55;;;16.20;76.60;;;;;;5146026;27;20042;-45
2020/12/14 01:25:58;;;;;;;4.97;4.47;;;16.10;76.70;;;;;;5126297;27;20095;-46
2020/12/14 01:28:25;;;;;;;5.15;4.60;;;16.10;76.60;;;;;;5125340;28;20015;-45
2020/12/14 01:30:51;;;;;;;5.20;4.70;;;16.10;76.70;;;;;;5125400;28;20023;-45
2020/12/14 01:33:17;;;;;;;5.32;4.50;;;16.10;76.60;;;;;;5140426;27;20023;-45
2020/12/14 01:35:43;;;;;;;5.40;4.90;;;16.10;76.60;;;;;;5144633;27;20046;-45
2020/12/14 01:38:09;;;;;;;4.97;4.55;;;16.00;76.70;;;;;;5139344;27;20475;-45
2020/12/14 01:40:36;;;;;;;5.40;4.90;;;16.00;76.40;;;;;;5145552;27;20031;-46
2020/12/14 01:43:02;;;;;;;5.40;4.90;;;16.00;77.30;;;;;;5145718;27;20027;-45
2020/12/14 01:45:28;;;;;;;5.00;4.60;;;16.00;76.40;;;;;;5145546;27;20095;-45
2020/12/14 01:47:54;;;;;;;5.10;4.60;;;16.00;76.60;;;;;;5145216;27;20095;-45
2020/12/14 01:50:20;;;;;;;5.65;4.90;;;16.00;76.30;;;;;;5095844;28;20094;-45
2020/12/14 01:52:47;;;;;;;4.93;4.43;;;16.00;76.70;;;;;;5106719;28;20031;-45
2020/12/14 01:55:15;;;;;;;5.10;4.60;;;15.90;76.40;;;;;;5126795;27;20086;-45
2020/12/14 01:57:41;;;;;;;5.10;4.40;;;15.90;76.50;;;;;;5124375;28;20107;-45
2020/12/14 02:00:11;;;;;;;4.90;4.50;;;15.90;76.50;;;;;;5124642;28;20032;-45
2020/12/14 02:02:37;;;;;;;5.32;4.82;;;16.00;76.70;;;;;;5106389;28;20207;-45
2020/12/14 02:05:05;;;;;;;4.97;4.53;;;15.90;76.50;;;;;;5106264;28;20092;-45
2020/12/14 02:07:31;;;;;;;5.30;4.80;;;15.90;76.70;;;;;;5138478;27;20035;-45
2020/12/14 02:09:57;;;;;;;5.13;4.70;;;15.90;76.60;;;;;;5144507;27;20061;-45
2020/12/14 02:12:24;;;;;;;5.07;4.63;;;15.90;76.70;;;;;;5144962;27;20060;-46
2020/12/14 02:14:51;;;;;;;5.18;4.78;;;15.90;76.60;;;;;;5126472;27;20019;-45
2020/12/14 02:17:19;;;;;;;5.55;5.05;;;15.80;76.20;;;;;;5144511;27;20043;-45
2020/12/14 02:19:45;;;;;;;;;;;15.80;76.40;;;;;;5135859;27;20059;-46
2020/12/14 02:22:12;;;;;;;4.65;4.25;;;15.80;76.50;;;;;;5124251;28;19904;-45
2020/12/14 02:24:38;;;;;;;5.60;5.10;;;15.80;76.40;;;;;;5123944;28;20027;-45
2020/12/14 02:27:04;;;;;;;4.72;4.32;;;15.80;76.30;;;;;;5123813;28;20027;-45
2020/12/14 02:29:30;;;;;;;5.35;4.88;;;15.80;76.30;;;;;;5124067;28;20034;-45
2020/12/14 02:31:56;;;;;;;5.25;4.80;;;15.80;76.50;;;;;;5127770;27;20047;-45
2020/12/14 02:34:22;;;;;;;5.07;4.60;;;15.80;76.70;;;;;;5144420;27;20027;-45
2020/12/14 02:36:48;;;;;;;5.15;4.65;;;15.80;76.50;;;;;;5134136;27;20027;-45
2020/12/14 02:39:15;;;;;;;5.75;5.00;;;15.80;76.50;;;;;;5123857;28;20045;-45
2020/12/14 02:41:41;;;;;;;5.20;4.70;;;15.80;76.60;;;;;;5124139;28;20031;-46
2020/12/14 02:44:07;;;;;;;4.75;4.35;;;15.80;76.50;;;;;;5123594;28;20027;-45
2020/12/14 02:46:33;;;;;;;4.68;4.28;;;15.70;76.50;;;;;;5123793;28;20069;-45
2020/12/14 02:48:59;;;;;;;5.10;4.70;;;15.70;76.60;;;;;;5126241;27;20571;-45
2020/12/14 02:51:26;;;;;;;5.05;4.55;;;15.80;76.80;;;;;;5123242;28;20061;-46
2020/12/14 02:53:52;;;;;;;4.90;4.50;;;15.70;76.60;;;;;;5122311;28;20386;-45
2020/12/14 02:56:19;;;;;;;4.93;4.50;;;15.70;76.30;;;;;;5103237;28;20039;-45
2020/12/14 02:58:46;;;;;;;5.45;4.95;;;15.70;76.70;;;;;;5102671;28;20023;-44
2020/12/14 03:01:12;;;;;;;4.00;3.30;;;15.70;76.40;;;;;;5103163;28;20024;-44
2020/12/14 03:03:38;;;;;;;5.70;5.10;;;15.70;76.40;;;;;;5139355;27;20049;-45
2020/12/14 03:06:04;;;;;;;5.45;4.95;;;15.70;76.40;;;;;;5140851;27;20122;-44
2020/12/14 03:08:31;;;;;;;5.32;4.82;;;15.70;76.70;;;;;;5123118;28;20031;-44
2020/12/14 03:10:57;;;;;;;5.20;4.70;;;15.70;76.70;;;;;;5123445;28;20019;-44
2020/12/14 03:13:23;;;;;;;5.40;4.90;;;15.70;76.50;;;;;;5123487;28;20028;-44
2020/12/14 03:15:49;;;;;;;5.35;4.85;;;15.60;76.50;;;;;;5123467;28;20027;-44
2020/12/14 03:18:15;;;;;;;5.88;5.22;;;15.70;76.60;;;;;;5122840;28;20055;-50
2020/12/14 03:20:41;;;;;;;5.30;4.80;;;15.60;76.50;;;;;;5140624;27;20075;-44
2020/12/14 03:23:07;;;;;;;5.07;4.57;;;15.60;76.60;;;;;;5143186;27;20031;-47
2020/12/14 03:25:34;;;;;;;6.35;4.70;;;15.70;76.40;;;;;;5127717;27;20031;-45
2020/12/14 03:28:00;;;;;;;4.50;4.10;;;15.60;76.60;;;;;;5124634;27;20051;-45
2020/12/14 03:30:27;;;;;;;4.88;4.45;;;15.70;76.80;;;;;;5125716;27;20020;-44
2020/12/14 03:32:53;;;;;;;5.43;4.85;;;15.60;76.60;;;;;;5134915;27;20052;-43
2020/12/14 03:35:19;;;;;;;5.30;4.80;;;15.60;76.50;;;;;;5143474;27;20035;-44
2020/12/14 03:37:45;;;;;;;5.38;4.88;;;15.60;76.60;;;;;;5140155;28;20140;-44
2020/12/14 03:40:12;;;;;;;5.50;4.88;;;15.60;76.50;;;;;;5143490;28;20034;-44
2020/12/14 03:42:38;;;;;;;5.35;4.85;;;15.60;76.50;;;;;;5143610;28;20029;-44
2020/12/14 03:45:04;;;;;;;5.20;4.70;;;15.60;76.40;;;;;;5143564;28;20105;-44
2020/12/14 03:47:30;;;;;;;5.25;4.75;;;15.60;76.60;;;;;;5143222;28;20035;-45
2020/12/14 03:49:57;;;;;;;5.37;4.87;;;15.60;76.50;;;;;;5132388;28;20032;-44
2020/12/14 03:52:24;;;;;;;5.30;4.80;;;15.60;76.60;;;;;;5107933;28;20027;-44
2020/12/14 03:54:50;;;;;;;4.93;4.45;;;15.60;76.70;;;;;;5124586;28;20031;-45
2020/12/14 03:57:16;;;;;;;5.07;4.63;;;15.60;76.60;;;;;;5122831;28;20027;-45
2020/12/14 03:59:42;;;;;;;5.03;4.63;;;15.60;76.60;;;;;;5122452;28;20130;-45
2020/12/14 04:02:08;;;;;;;5.43;4.93;;;15.60;76.70;;;;;;5128268;28;20824;-44
2020/12/14 04:04:35;;;;;;;5.03;4.63;;;15.60;76.70;;;;;;5143239;28;20035;-44
2020/12/14 04:07:01;;;;;;;5.28;4.30;;;15.60;76.60;;;;;;5142942;28;20035;-45
2020/12/14 04:09:27;;;;;;;5.50;5.00;;;15.60;76.70;;;;;;5142988;28;20034;-45
2020/12/14 04:11:53;;;;;;;4.95;4.47;;;15.50;76.60;;;;;;5143441;28;20048;-45
2020/12/14 04:14:22;;;;;;;5.03;4.60;;;15.60;76.80;;;;;;5143089;28;20051;-45
2020/12/14 04:16:51;;;;;;;5.53;4.93;;;15.50;76.80;;;;;;5142985;28;20066;-44
2020/12/14 04:19:22;;;;;;;5.20;4.70;;;15.50;76.60;;;;;;5137476;28;20030;-43
2020/12/14 04:21:50;;;;;;;5.25;4.65;;;15.50;76.90;;;;;;5122850;28;20058;-44
2020/12/14 04:24:16;;;;;;;5.13;4.63;;;15.50;76.80;;;;;;5122472;28;20026;-44
2020/12/14 04:26:42;;;;;;;5.65;5.15;;;15.50;76.80;;;;;;5122685;28;20036;-44
2020/12/14 04:29:09;;;;;;;5.40;4.90;;;15.50;76.60;;;;;;5122344;28;20110;-45
2020/12/14 04:31:35;;;;;;;5.35;4.78;;;15.50;76.70;;;;;;5123299;28;20552;-44
2020/12/14 04:34:02;;;;;;;5.80;5.03;;;15.50;76.90;;;;;;5145474;27;20027;-44
2020/12/14 04:36:31;;;;;;;5.10;4.65;;;15.50;76.80;;;;;;5155186;27;20028;-45
2020/12/14 04:38:57;;;;;;;5.30;4.80;;;15.50;76.60;;;;;;5125907;28;20105;-43
2020/12/14 04:41:24;;;;;;;5.20;4.70;;;15.50;76.80;;;;;;5126212;28;20027;-44
2020/12/14 04:43:51;;;;;;;5.22;4.72;;;15.50;76.80;;;;;;5126130;28;20132;-44
2020/12/14 04:46:19;;;;;;;5.60;5.10;;;15.50;76.90;;;;;;5126134;28;20063;-45
2020/12/14 04:48:45;;;;;;;5.53;5.03;;;15.50;76.80;;;;;;5126289;27;20028;-44
2020/12/14 04:51:11;;;;;;;5.40;4.88;;;15.50;77.50;;;;;;5114602;28;20023;-45
2020/12/14 04:53:40;;;;;;;5.65;5.03;;;15.50;76.80;;;;;;5107432;28;20115;-44
2020/12/14 04:56:07;;;;;;;5.00;4.55;;;15.50;76.90;;;;;;5125958;28;20028;-44
2020/12/14 04:58:33;;;;;;;;;;;15.50;76.90;;;;;;5108003;28;20034;-44
2020/12/14 05:00:59;;;;;;;4.90;4.40;;;15.50;76.90;;;;;;5125305;28;19967;-44
2020/12/14 05:03:26;;;;;;;5.47;4.97;;;15.50;76.90;;;;;;5126326;27;20031;-45
2020/12/14 05:05:55;;;;;;;5.28;4.78;;;15.50;76.80;;;;;;5125792;28;20024;-45
2020/12/14 05:08:25;;;;;;;5.00;4.55;;;15.50;77.00;;;;;;5141430;27;20076;-45
2020/12/14 05:10:51;;;;;;;5.30;4.80;;;15.50;76.90;;;;;;5127462;27;20023;-44
2020/12/14 05:13:18;;;;;;;4.97;4.50;;;15.50;77.00;;;;;;5146325;27;20028;-44
2020/12/14 05:15:44;;;;;;;5.50;5.00;;;15.50;77.00;;;;;;5145819;27;20039;-46
2020/12/14 05:18:14;;;;;;;5.25;4.75;;;15.50;76.90;;;;;;5146022;27;20047;-44
2020/12/14 05:21:03;;;;;;;5.25;4.75;;;15.50;77.00;;;;;;5129007;27;20028;-45
2020/12/14 05:23:30;;;;;;;5.18;4.68;;;15.50;77.00;;;;;;5094346;28;20040;-45
2020/12/14 05:26:04;;;;;;;4.68;4.28;;;15.50;77.60;;;;;;5124921;28;20647;-44
2020/12/14 05:28:30;;;;;;;4.93;4.53;;;15.50;77.00;;;;;;5125281;28;20057;-44
2020/12/14 05:30:56;;;;;;;5.57;4.82;;;15.50;77.00;;;;;;5106758;28;20034;-45
2020/12/14 05:33:24;;;;;;;4.97;4.55;;;15.50;76.90;;;;;;5139583;27;20023;-44
2020/12/14 05:35:50;;;;;;;5.07;4.57;;;15.50;77.20;;;;;;5143904;27;20031;-44
2020/12/14 05:38:18;;;;;;;5.20;4.70;;;15.50;77.20;;;;;;5124602;28;20031;-44
2020/12/14 05:40:49;;;;;;;5.22;4.72;;;15.50;77.10;;;;;;5125091;28;20480;-45
2020/12/14 05:43:17;;;;;;;5.07;4.57;;;15.50;77.10;;;;;;5124752;28;20023;-45
2020/12/14 05:45:43;;;;;;;4.82;4.32;;;15.50;77.10;;;;;;5123940;28;20035;-45
2020/12/14 05:48:26;;;;;;;4.93;4.53;;;15.50;77.20;;;;;;5125288;27;20027;-44
2020/12/14 05:51:03;;;;;;;5.20;4.70;;;15.50;77.30;;;;;;5126512;27;20038;-44
2020/12/14 05:53:33;;;;;;;4.97;4.57;;;15.50;77.20;;;;;;5124957;28;20170;-44
2020/12/14 05:56:00;;;;;;;5.78;4.50;;;15.50;77.30;;;;;;5124591;28;20031;-45
2020/12/14 05:58:28;;;;;;;5.25;4.75;;;15.50;77.30;;;;;;5124578;28;20024;-44
2020/12/14 06:00:55;;;;;;;5.30;4.80;;;15.50;77.40;;;;;;5106639;28;20132;-45
2020/12/14 06:03:23;;;;;;;5.00;4.50;;;15.50;77.30;;;;;;5106358;28;20024;-45
2020/12/14 06:05:51;;;;;;;4.82;4.43;;;15.40;77.40;;;;;;5123949;28;20039;-45
2020/12/14 06:08:35;;;;;;;5.43;4.93;;;15.40;78.00;;;;;;5106371;28;20087;-45
2020/12/14 06:11:01;;;;;;;5.00;4.50;;;15.50;77.50;;;;;;5124301;28;20062;-44
2020/12/14 06:13:31;;;;;;;5.28;4.78;;;15.50;77.50;;;;;;5123387;28;20030;-44
2020/12/14 06:16:01;;;;;;;4.78;4.32;;;15.50;77.60;;;;;;5124027;28;20026;-45
2020/12/14 06:18:34;;;;;;;4.93;4.40;;;15.40;77.40;;;;;;5104291;28;20519;-45
2020/12/14 06:21:00;;;;;;;5.22;4.72;;;15.40;77.60;;;;;;5103945;28;20555;-44
2020/12/14 06:23:29;;;;;;;4.80;4.40;;;15.50;77.60;;;;;;5085760;28;20046;-44
2020/12/14 06:25:55;;;;;;;5.10;4.60;;;15.40;77.50;;;;;;5068860;28;20086;-44
2020/12/14 06:28:31;;;;;;;5.20;4.70;;;15.50;77.60;;;;;;5068874;28;20408;-44
2020/12/14 06:30:57;;;;;;;4.85;4.43;;;15.50;77.60;;;;;;5103762;28;20123;-44
2020/12/14 06:33:37;;;;;;;4.85;4.45;;;15.40;77.50;;;;;;5103529;28;20032;-45
2020/12/14 06:36:23;;;;;;;4.78;4.38;;;15.50;77.60;;;;;;5101725;28;20034;-45
2020/12/14 06:38:53;;;;;;;5.07;4.57;;;15.50;77.60;;;;;;5103533;28;20091;-44
2020/12/14 06:41:26;;;;;;;4.82;4.40;;;15.50;77.80;;;;;;5103431;28;20028;-44
2020/12/14 06:44:06;;;;;;;4.85;4.35;;;15.40;77.70;;;;;;5103538;28;20091;-44
2020/12/14 06:46:32;;;;;;;5.00;4.55;;;15.50;77.80;;;;;;5085232;28;20106;-45
2020/12/14 06:48:59;;;;;;;5.15;4.68;;;15.40;77.60;;;;;;5103464;28;20733;-44
2020/12/14 06:51:26;;;;;;;4.78;4.38;;;15.50;77.90;;;;;;5103399;28;20036;-44
2020/12/14 06:53:54;;;;;;;4.57;4.18;;;15.50;77.90;;;;;;5085063;28;20043;-45
2020/12/14 06:56:26;;;;;;;5.35;4.85;;;15.50;78.00;;;;;;5103059;28;20028;-44
2020/12/14 06:58:52;;;;;;;5.10;4.60;;;15.50;77.80;;;;;;5103225;28;20028;-44
2020/12/14 07:01:33;;;;;;;4.05;3.72;;;15.50;77.90;;;;;;5103088;28;20028;-44
2020/12/14 07:04:01;;;;;;;4.35;3.95;;;15.50;78.50;;;;;;5082919;28;20076;-44
2020/12/14 07:06:27;;;;;;;4.95;4.45;;;15.50;77.90;;;;;;5089273;28;20046;-44
2020/12/14 07:08:54;;;;;;;4.37;3.97;;;15.50;77.90;;;;;;5103390;28;20030;-44
2020/12/14 07:11:21;;;;;;;5.05;4.43;;;15.50;78.00;;;;;;5103087;28;20040;-45
2020/12/14 07:13:48;;;;;;;;;;;15.50;78.00;;;;;;5085588;28;20039;-44
2020/12/14 07:16:15;;;;;;;4.95;4.47;;;15.50;78.00;;;;;;5103191;28;19934;-45
2020/12/14 07:18:42;;;;;;;4.60;4.20;;;15.50;78.00;;;;;;5105590;28;20118;-44
2020/12/14 07:21:12;;;;;;;;;;;15.50;77.90;;;;;;5144450;27;20035;-44
2020/12/14 07:23:40;;;;;;;4.72;4.25;;;15.50;77.80;;;;;;5143931;27;19977;-44
2020/12/14 07:26:07;;;;;;;4.88;4.47;;;15.50;77.90;;;;;;5104730;28;20031;-45
2020/12/14 07:28:37;;;;;;;4.90;4.43;;;15.50;77.80;;;;;;5123007;28;20027;-44
2020/12/14 07:31:13;;;;;;;4.25;3.85;;;15.50;78.00;;;;;;5123029;28;20606;-44
2020/12/14 07:33:40;;;;;;;4.45;4.05;;;15.50;77.90;;;;;;5126747;28;20095;-45
2020/12/14 07:36:08;;;;;;;4.70;4.30;;;15.50;78.00;;;;;;5122751;28;20035;-45
2020/12/14 07:38:40;;;;;;;4.70;4.30;;;15.50;77.90;;;;;;5122955;28;20028;-44
2020/12/14 07:41:07;;;;;;;4.53;4.13;;;15.50;77.80;;;;;;5104644;28;20023;-44
2020/12/14 07:43:47;;;;;;;4.30;3.63;;;15.50;77.90;;;;;;5123291;28;20024;-45
2020/12/14 07:46:23;;;;;;;4.57;4.18;;;15.50;78.00;;;;;;5122877;28;20379;-44
2020/12/14 07:48:56;;;;;;;4.80;4.38;;;15.50;78.10;;;;;;5124178;28;20028;-45
2020/12/14 07:51:22;;;;;;;3.88;3.58;;;15.50;78.00;;;;;;5143739;28;20037;-44
2020/12/14 07:53:52;;;;;;;4.33;3.93;;;15.50;78.00;;;;;;5142673;28;20030;-44
2020/12/14 07:56:19;;;;;;;4.93;4.43;;;15.50;78.10;;;;;;5123007;28;20276;-45
2020/12/14 07:58:48;;;;;;;4.32;3.92;;;15.50;78.00;;;;;;5125052;28;20817;-44
2020/12/14 08:01:18;;;;;;;4.60;4.20;;;15.50;78.00;;;;;;5123020;28;20040;-44
2020/12/14 08:03:47;;;;;;;4.78;4.35;;;15.50;77.90;;;;;;5103971;28;20025;-45
2020/12/14 08:06:17;;;;;;;4.75;4.35;;;15.50;78.00;;;;;;5102358;28;20602;-44
2020/12/14 08:08:48;;;;;;;4.55;4.15;;;15.50;78.00;;;;;;5104280;28;20402;-44
2020/12/14 08:11:15;;;;;;;4.90;4.50;;;15.50;78.00;;;;;;5106391;28;20039;-45
2020/12/14 08:13:43;;;;;;;4.78;4.38;;;15.50;77.90;;;;;;5106639;28;20047;-44
2020/12/14 08:16:09;;;;;;;4.85;4.32;;;15.50;78.00;;;;;;5121234;28;20119;-44
2020/12/14 08:18:35;;;;;;;4.75;4.35;;;15.50;77.90;;;;;;5084555;28;20397;-45
2020/12/14 08:21:01;;;;;;;4.35;3.95;;;15.50;78.00;;;;;;5121649;28;20024;-45
2020/12/14 08:23:30;;;;;;;4.53;4.13;;;15.50;78.00;;;;;;5106287;28;20087;-44
2020/12/14 08:25:56;;;;;;;4.40;4.00;;;15.50;78.10;;;;;;5106030;28;20044;-45
2020/12/14 08:28:29;;;;;;;4.93;4.25;;;15.50;77.90;;;;;;5106054;28;20051;-44
2020/12/14 08:30:56;;;;;;;4.50;4.10;;;15.50;77.90;;;;;;5106087;28;20746;-45
2020/12/14 08:33:22;;;;;;;4.25;3.92;;;15.50;78.00;;;;;;5100001;28;20031;-47
2020/12/14 08:35:52;;;;;;;4.97;4.53;;;15.50;78.00;;;;;;5098340;28;20032;-44
2020/12/14 08:38:21;;;;;;;4.22;3.83;;;15.50;77.80;;;;;;5097546;28;20036;-44
2020/12/14 08:40:51;;;;;;;4.22;3.83;;;15.50;78.00;;;;;;5096699;28;20028;-44
2020/12/14 08:43:17;;;;;;;4.55;4.15;;;15.50;77.90;;;;;;5098797;28;20055;-44
2020/12/14 08:46:03;;;;;;;4.43;4.03;;;15.50;78.10;;;;;;5094777;28;20032;-44
2020/12/14 08:48:30;;;;;;;4.68;4.28;;;15.50;77.90;;;;;;5098557;28;20050;-45
2020/12/14 08:51:07;;;;;;;4.32;3.92;;;15.50;78.00;;;;;;5098189;28;21238;-44
2020/12/14 08:53:34;;;;;;;4.40;4.00;;;15.60;78.20;;;;;;5098651;28;20082;-44
2020/12/14 08:56:10;;;;;;;4.73;4.33;;;15.60;78.10;;;;;;5096138;28;20039;-45
2020/12/14 08:58:53;;;;;;;4.45;4.03;;;15.60;78.20;;;;;;5096982;28;20016;-45
2020/12/14 09:01:20;;;;;;;4.10;3.70;;;15.60;78.10;;;;;;5098568;28;20047;-45
2020/12/14 09:03:48;;;;;;;4.22;3.83;;;15.60;78.00;;;;;;5086664;28;20020;-44
2020/12/14 09:06:36;;;;;;;3.88;3.55;;;15.60;78.10;;;;;;5105175;28;20066;-43
2020/12/14 09:09:03;;;;;;;3.97;3.67;;;15.60;78.00;;;;;;5105297;28;20058;-44
2020/12/14 09:11:30;;;;;;;4.18;3.78;;;15.60;77.90;;;;;;5105439;28;20119;-44
2020/12/14 09:13:58;;;;;;;4.25;3.85;;;15.60;78.10;;;;;;5105415;28;20020;-45
2020/12/14 09:16:25;;;;;;;4.10;3.80;;;15.60;78.20;;;;;;5087267;28;20035;-44
2020/12/14 09:18:51;;;;;;;3.40;3.10;;;15.60;78.10;;;;;;5086891;28;20024;-45
2020/12/14 09:21:19;;;;;;;4.18;3.78;;;15.60;78.00;;;;;;5086502;28;20508;-45
2020/12/14 09:23:46;;;;;;;4.40;4.00;;;15.60;78.10;;;;;;5105129;28;20024;-44
2020/12/14 09:26:12;;;;;;;4.28;3.88;;;15.60;78.00;;;;;;5086731;28;20040;-44
2020/12/14 09:28:38;;;;;;;4.25;3.85;;;15.60;78.00;;;;;;5104929;28;20024;-44
2020/12/14 09:31:08;;;;;;;3.85;3.55;;;15.60;78.10;;;;;;5105176;28;20028;-44
2020/12/14 09:33:34;;;;;;;4.13;3.72;;;15.60;78.00;;;;;;5087698;28;20048;-44
2020/12/14 09:36:00;;;;;;;3.95;3.55;;;15.60;78.10;;;;;;5097255;28;20034;-44
2020/12/14 09:38:26;;;;;;;3.58;3.28;;;15.60;78.30;;;;;;5104926;28;20028;-44
2020/12/14 09:40:55;;;;;;;3.75;3.45;;;15.60;78.10;;;;;;5104644;28;20032;-44
2020/12/14 09:43:25;;;;;;;4.25;3.88;;;15.60;78.10;;;;;;5102918;28;20024;-44
2020/12/14 09:45:52;;;;;;;3.63;3.30;;;15.60;78.20;;;;;;5104628;28;20036;-44
2020/12/14 09:48:18;;;;;;;3.60;3.30;;;15.60;78.10;;;;;;5104795;28;20032;-46
2020/12/14 09:50:45;;;;;;;4.10;3.70;;;15.60;78.00;;;;;;5104542;28;20067;-45
2020/12/14 09:53:11;;;;;;;3.70;3.40;;;15.60;78.20;;;;;;5104840;28;20032;-44
2020/12/14 09:55:37;;;;;;;3.58;3.28;;;15.60;78.10;;;;;;5104532;28;20524;-45
2020/12/14 09:58:04;;;;;;;4.03;3.53;;;15.60;78.40;;;;;;5104874;28;20080;-44
2020/12/14 10:00:30;;;;;;;3.78;3.47;;;15.60;78.10;;;;;;5104325;28;20042;-45
2020/12/14 10:02:56;;;;;;;3.72;3.40;;;15.60;78.40;;;;;;5098548;28;20025;-44
2020/12/14 10:05:22;;;;;;;3.85;3.47;;;15.60;78.70;;;;;;5097963;28;20024;-45
2020/12/14 10:07:49;;;;;;;3.58;3.25;;;15.60;78.40;;;;;;5095790;28;20036;-44
2020/12/14 10:10:15;;;;;;;3.40;3.10;;;15.70;78.50;;;;;;5097541;28;20119;-44
2020/12/14 10:12:42;;;;;;;3.55;3.25;;;15.70;78.40;;;;;;5097521;28;20020;-45
2020/12/14 10:15:09;;;;;;;3.70;3.40;;;15.60;78.50;;;;;;5097160;28;20032;-46
2020/12/14 10:17:36;;;;;;;;;;;15.60;78.50;;;;;;5120222;27;20051;-45
2020/12/14 10:20:04;;;;;;;4.03;3.10;;;15.60;78.40;;;;;;5129360;27;20000;-45
2020/12/14 10:22:31;;;;;;;3.65;3.30;;;15.60;78.50;;;;;;5108129;27;20035;-45
2020/12/14 10:24:57;;;;;;;3.72;3.40;;;15.70;78.60;;;;;;5124606;27;21128;-45
2020/12/14 10:27:24;;;;;;;3.78;3.47;;;15.70;79.00;;;;;;5129915;27;20055;-45
2020/12/14 10:29:50;;;;;;;3.58;3.28;;;15.60;78.80;;;;;;5134089;27;20032;-45
2020/12/14 10:32:16;;;;;;;4.00;3.20;;;15.70;79.10;;;;;;5128368;27;20110;-45
2020/12/14 10:34:43;;;;;;;3.50;3.20;;;15.70;79.20;;;;;;5124534;28;20030;-45
2020/12/14 10:37:09;;;;;;;3.72;3.42;;;15.70;79.80;;;;;;5124291;28;20504;-45
2020/12/14 10:39:35;;;;;;;6.45;3.03;;;15.70;79.20;;;;;;5123290;28;20059;-45
2020/12/14 10:42:01;;;;;;;3.83;3.22;;;15.70;79.10;;;;;;5115224;28;20051;-45
2020/12/14 10:44:30;;;;;;;3.83;3.42;;;15.70;79.10;;;;;;5104016;28;20552;-46
2020/12/14 10:47:06;;;;;;;3.58;3.28;;;15.70;79.00;;;;;;5103574;28;20040;-45
2020/12/14 10:49:32;;;;;;;3.78;3.40;;;15.70;78.90;;;;;;5118567;27;20019;-45
2020/12/14 10:52:01;;;;;;;3.63;3.33;;;15.70;78.90;;;;;;5144907;27;20027;-45
2020/12/14 10:54:27;;;;;;;3.88;3.58;;;15.70;78.80;;;;;;5138169;27;20549;-45
2020/12/14 10:56:53;;;;;;;3.70;3.30;;;15.70;78.80;;;;;;5123813;28;20043;-44
2020/12/14 10:59:19;;;;;;;3.45;3.15;;;15.70;78.80;;;;;;5105727;28;20024;-45
2020/12/14 11:01:50;;;;;;;3.40;3.10;;;15.70;78.80;;;;;;5125789;27;20027;-45
2020/12/14 11:04:17;;;;;;;3.47;3.17;;;15.70;78.70;;;;;;5144739;27;20034;-45
2020/12/14 11:06:43;;;;;;;3.70;3.08;;;15.70;78.70;;;;;;5135190;27;20036;-46
2020/12/14 11:09:09;;;;;;;3.42;3.13;;;15.70;78.60;;;;;;5123906;28;20046;-45
2020/12/14 11:11:36;;;;;;;3.15;2.95;;;15.70;78.50;;;;;;5123640;28;20024;-44
2020/12/14 11:14:02;;;;;;;3.27;2.97;;;15.70;78.50;;;;;;5124036;28;20023;-45
2020/12/14 11:16:31;;;;;;;3.30;3.00;;;15.70;79.30;;;;;;5120357;28;20292;-45
2020/12/14 11:18:57;;;;;;;3.05;2.75;;;15.70;78.50;;;;;;5085504;28;20040;-44
2020/12/14 11:21:23;;;;;;;3.35;3.00;;;15.70;78.50;;;;;;5103131;28;20031;-44
2020/12/14 11:23:50;;;;;;;3.00;2.75;;;15.70;78.60;;;;;;5103094;28;20024;-44
2020/12/14 11:26:16;;;;;;;3.28;2.97;;;15.70;78.70;;;;;;5103055;28;20028;-46
2020/12/14 11:28:42;;;;;;;3.50;3.20;;;15.70;78.70;;;;;;5103292;28;20024;-44
2020/12/14 11:31:08;;;;;;;3.40;3.10;;;15.70;78.60;;;;;;5102521;28;20028;-44
2020/12/14 11:33:37;;;;;;;3.20;2.90;;;15.70;78.70;;;;;;5102960;28;20032;-44
2020/12/14 11:36:04;;;;;;;3.05;2.75;;;15.80;78.70;;;;;;5102556;28;20024;-44
2020/12/14 11:38:30;;;;;;;3.53;3.22;;;15.70;78.60;;;;;;5103000;28;20556;-44
2020/12/14 11:40:58;;;;;;;3.28;2.97;;;15.80;78.70;;;;;;5102932;28;20030;-45
2020/12/14 11:43:24;;;;;;;3.03;2.83;;;15.80;78.70;;;;;;5102363;28;20105;-45
2020/12/14 11:45:50;;;;;;;3.40;3.10;;;15.80;78.70;;;;;;5102762;28;20107;-44
2020/12/14 11:48:17;;;;;;;2.85;2.63;;;15.80;78.70;;;;;;5085028;28;20052;-44
2020/12/14 11:50:43;;;;;;;2.83;2.50;;;15.80;78.70;;;;;;5102862;28;20023;-44
2020/12/14 11:53:09;;;;;;;3.03;2.63;;;15.80;78.70;;;;;;5102858;28;20032;-44
2020/12/14 11:55:39;;;;;;;3.40;3.10;;;15.80;78.70;;;;;;5102679;28;20024;-44
2020/12/14 11:58:05;;;;;;;3.67;3.00;;;15.80;78.90;;;;;;5102847;28;20036;-44
2020/12/14 12:00:31;;;;;;;3.05;2.78;;;15.80;78.70;;;;;;5102692;28;20020;-43
2020/12/14 12:02:58;;;;;;;4.65;3.20;;;15.80;78.80;;;;;;5102801;28;20064;-43
2020/12/14 12:05:24;;;;;;;3.20;2.90;;;15.80;78.90;;;;;;5102533;28;20032;-44
2020/12/14 12:07:50;;;;;;;2.88;2.63;;;15.80;79.00;;;;;;5102559;28;20028;-44
2020/12/14 12:10:16;;;;;;;3.40;3.10;;;15.80;79.10;;;;;;5084599;28;20024;-44
2020/12/14 12:12:43;;;;;;;2.87;2.67;;;15.80;79.20;;;;;;5102570;28;20032;-45
2020/12/14 12:15:09;;;;;;;3.38;2.97;;;15.80;79.30;;;;;;5102839;28;20044;-45
2020/12/14 12:17:35;;;;;;;3.08;2.80;;;15.80;79.40;;;;;;5102579;28;20052;-44
2020/12/14 12:20:01;;;;;;;3.08;2.78;;;15.80;79.50;;;;;;5102485;28;20021;-43
2020/12/14 12:22:27;;;;;;;3.22;2.92;;;15.80;79.60;;;;;;5102435;28;20039;-43
2020/12/14 12:24:53;;;;;;;2.92;2.63;;;15.80;79.70;;;;;;5102572;28;20104;-43
2020/12/14 12:27:19;;;;;;;3.03;2.72;;;15.80;80.00;;;;;;5102699;28;20033;-43
2020/12/14 12:29:46;;;;;;;3.33;2.80;;;15.80;80.20;;;;;;5102563;28;20047;-44
2020/12/14 12:32:12;;;;;;;2.97;2.78;;;15.80;80.30;;;;;;5102446;28;20028;-44
2020/12/14 12:34:38;;;;;;;2.80;2.60;;;15.80;80.10;;;;;;5102409;28;20020;-43
2020/12/14 12:37:04;;;;;;;2.90;2.70;;;15.80;80.10;;;;;;5102143;28;20520;-43
2020/12/14 12:39:30;;;;;;;2.63;2.42;;;15.80;80.00;;;;;;5102460;28;20110;-44
2020/12/14 12:41:57;;;;;;;3.10;2.75;;;15.80;79.90;;;;;;5101998;28;20059;-43
2020/12/14 12:44:23;;;;;;;2.90;2.70;;;15.80;79.70;;;;;;5067736;28;20624;-43
2020/12/14 12:46:50;;;;;;;2.90;2.50;;;15.80;79.50;;;;;;5084154;28;20131;-44
2020/12/14 12:49:16;;;;;;;2.80;2.60;;;15.80;79.50;;;;;;5102300;28;20033;-44